createdAt,value
2022-08-09T00:00:00.152Z,5.47
2022-08-09T00:02:36.785Z,8.13
2022-08-09T00:06:18.189Z,4.93
2022-08-09T00:07:56.116Z,5.90
2022-08-09T00:10:26.883Z,6.00
2022-08-09T00:12:53.825Z,11.33
2022-08-09T00:15:26.846Z,10.07
2022-08-09T00:18:11.231Z,7.37
2022-08-09T00:20:42.153Z,8.80
2022-08-09T00:23:56.330Z,8.87
2022-08-09T00:26:05.477Z,8.07
2022-08-09T00:28:32.261Z,7.57
2022-08-09T00:31:09.020Z,7.13
2022-08-09T00:33:51.433Z,6.40
2022-08-09T00:36:18.410Z,8.43
2022-08-09T00:38:45.030Z,9.30
2022-08-09T00:44:15.498Z,7.50
2022-08-09T00:44:19.183Z,6.70
2022-08-09T00:46:57.500Z,8.10
2022-08-09T00:49:31.317Z,8.70
2022-08-09T00:51:58.031Z,10.00
2022-08-09T00:54:35.006Z,16.30
2022-08-09T00:57:02.862Z,9.03
2022-08-09T00:59:41.185Z,9.60
2022-08-09T01:02:12.944Z,21.90
2022-08-09T01:04:45.733Z,12.57
2022-08-09T01:07:20.140Z,11.43
2022-08-09T01:10:20.016Z,10.33
2022-08-09T01:13:11.807Z,15.97
2022-08-09T01:15:51.981Z,11.77
2022-08-09T01:18:30.327Z,10.57
2022-08-09T01:21:16.898Z,18.07
2022-08-09T01:24:02.523Z,17.00
2022-08-09T01:26:34.044Z,13.93
2022-08-09T01:29:01.795Z,11.20
2022-08-09T01:32:29.757Z,18.57
2022-08-09T01:34:18.111Z,11.37
2022-08-09T01:36:45.170Z,11.83
2022-08-09T01:39:13.752Z,10.63
2022-08-09T01:41:53.395Z,11.90
2022-08-09T01:44:23.683Z,23.50
2022-08-09T01:46:51.079Z,12.57
2022-08-09T01:49:21.035Z,8.50
2022-08-09T01:51:56.204Z,14.37
2022-08-09T01:54:28.037Z,11.60
2022-08-09T01:57:04.170Z,5.23
2022-08-09T01:59:32.706Z,7.83
2022-08-09T02:02:09.238Z,11.20
2022-08-09T02:04:36.852Z,15.87
2022-08-09T02:07:18.546Z,10.87
2022-08-09T02:10:09.405Z,11.77
2022-08-09T02:12:37.199Z,7.67
2022-08-09T02:15:07.794Z,7.00
2022-08-09T02:18:09.845Z,6.40
2022-08-09T02:20:25.268Z,12.43
2022-08-09T02:23:08.075Z,5.67
2022-08-09T02:25:42.731Z,10.80
2022-08-09T02:28:19.071Z,6.47
2022-08-09T02:30:51.773Z,11.33
2022-08-09T02:33:38.295Z,7.67
2022-08-09T02:36:15.846Z,13.53
2022-08-09T02:38:52.944Z,9.60
2022-08-09T02:41:24.351Z,10.47
2022-08-09T02:43:54.634Z,11.20
2022-08-09T02:46:24.542Z,9.13
2022-08-09T02:48:51.602Z,9.80
2022-08-09T02:51:20.303Z,12.20
2022-08-09T02:54:00.601Z,12.60
2022-08-09T02:56:30.491Z,8.53
2022-08-09T02:58:59.396Z,17.97
2022-08-09T03:01:29.542Z,10.40
2022-08-09T03:04:18.348Z,11.83
2022-08-09T03:06:46.752Z,15.00
2022-08-09T03:09:16.218Z,18.10
2022-08-09T03:12:05.642Z,16.23
2022-08-09T03:14:32.115Z,8.70
2022-08-09T03:16:59.765Z,17.03
2022-08-09T03:19:52.864Z,12.83
2022-08-09T03:22:25.712Z,11.13
2022-08-09T03:25:21.435Z,14.77
2022-08-09T03:27:51.264Z,15.00
2022-08-09T03:30:32.937Z,13.93
2022-08-09T03:33:17.969Z,13.67
2022-08-09T03:36:14.055Z,20.40
2022-08-09T03:38:42.117Z,19.00
2022-08-09T03:41:10.425Z,22.83
2022-08-09T03:43:42.599Z,21.30
2022-08-09T03:46:27.108Z,14.30
2022-08-09T03:48:57.549Z,28.97
2022-08-09T03:51:55.107Z,18.73
2022-08-09T03:54:15.456Z,12.27
2022-08-09T03:56:42.354Z,17.00
2022-08-09T03:59:13.841Z,15.93
2022-08-09T04:01:48.782Z,22.10
2022-08-09T04:04:15.913Z,13.07
2022-08-09T04:06:44.016Z,10.90
2022-08-09T04:09:47.429Z,14.07
2022-08-09T04:12:30.392Z,12.40
2022-08-09T04:15:01.853Z,15.13
2022-08-09T04:17:29.543Z,17.10
2022-08-09T04:19:56.502Z,10.10
2022-08-09T04:22:23.239Z,19.77
2022-08-09T04:24:49.999Z,8.93
2022-08-09T04:27:17.201Z,15.50
2022-08-09T04:29:50.063Z,15.43
2022-08-09T04:32:23.782Z,18.90
2022-08-09T04:35:01.197Z,22.83
2022-08-09T04:37:42.111Z,15.10
2022-08-09T04:40:28.490Z,27.10
2022-08-09T04:42:59.461Z,17.50
2022-08-09T04:45:30.636Z,24.03
2022-08-09T04:48:02.158Z,23.47
2022-08-09T04:50:31.890Z,23.20
2022-08-09T04:53:02.070Z,26.80
2022-08-09T04:55:32.480Z,20.73
2022-08-09T04:58:09.214Z,19.23
2022-08-09T05:00:36.563Z,21.57
2022-08-09T05:03:12.750Z,23.13
2022-08-09T05:05:52.212Z,22.50
2022-08-09T05:08:19.647Z,21.97
2022-08-09T05:10:46.205Z,19.80
2022-08-09T05:13:12.883Z,18.63
2022-08-09T05:15:48.203Z,23.00
2022-08-09T05:18:38.484Z,17.33
2022-08-09T05:21:13.463Z,20.00
2022-08-09T05:24:00.489Z,16.77
2022-08-09T05:26:36.004Z,26.53
2022-08-09T05:29:04.346Z,16.00
2022-08-09T05:31:43.999Z,16.70
2022-08-09T05:34:17.051Z,16.70
2022-08-09T05:36:47.093Z,18.37
2022-08-09T05:39:28.844Z,11.30
2022-08-09T05:42:04.474Z,9.53
2022-08-09T05:44:32.745Z,8.90
2022-08-09T05:47:05.450Z,8.83
2022-08-09T05:50:23.497Z,10.00
2022-08-09T05:52:19.373Z,8.43
2022-08-09T05:54:46.226Z,16.47
2022-08-09T05:57:17.638Z,9.00
2022-08-09T05:59:45.810Z,9.60
2022-08-09T06:02:12.352Z,12.87
2022-08-09T06:04:44.573Z,8.63
2022-08-09T06:07:21.318Z,10.50
2022-08-09T06:10:02.390Z,6.40
2022-08-09T06:12:30.291Z,5.87
2022-08-09T06:15:00.938Z,6.60
2022-08-09T06:17:40.350Z,6.00
2022-08-09T06:20:07.656Z,5.27
2022-08-09T06:22:34.749Z,6.00
2022-08-09T06:25:01.492Z,9.67
2022-08-09T06:27:41.284Z,7.10
2022-08-09T06:30:10.315Z,5.67
2022-08-09T06:33:00.928Z,6.27
2022-08-09T06:35:56.548Z,6.00
2022-08-09T06:38:10.013Z,9.27
2022-08-09T06:40:38.047Z,8.60
2022-08-09T06:43:07.630Z,5.90
2022-08-09T06:46:05.019Z,6.10
2022-08-09T06:48:30.259Z,5.23
2022-08-09T06:50:58.300Z,4.47
2022-08-09T06:53:24.865Z,3.60
2022-08-09T06:55:52.193Z,3.10
2022-08-09T07:00:47.654Z,3.10
2022-08-09T07:01:05.543Z,3.33
2022-08-09T07:03:39.696Z,5.20
2022-08-09T07:06:19.799Z,3.33
2022-08-09T07:08:46.635Z,5.07
2022-08-09T07:11:23.607Z,4.13
2022-08-09T07:14:04.930Z,8.70
2022-08-09T07:16:43.971Z,3.87
2022-08-09T07:19:22.883Z,5.10
2022-08-09T07:21:57.345Z,3.13
2022-08-09T07:24:32.155Z,17.73
2022-08-09T07:27:10.994Z,4.30
2022-08-09T07:29:53.734Z,5.07
2022-08-09T07:32:23.902Z,3.20
2022-08-09T07:35:01.055Z,2.90
2022-08-09T07:37:29.413Z,2.67
2022-08-09T07:39:56.156Z,3.20
2022-08-09T07:42:32.564Z,3.43
2022-08-09T07:45:06.333Z,2.57
2022-08-09T07:47:49.605Z,2.40
2022-08-09T07:50:34.899Z,5.33
2022-08-09T07:53:04.792Z,2.23
2022-08-09T07:55:41.448Z,3.10
2022-08-09T07:58:18.376Z,3.33
2022-08-09T08:00:59.057Z,2.80
2022-08-09T08:03:31.464Z,3.10
2022-08-09T08:05:58.578Z,2.17
2022-08-09T08:09:02.144Z,2.20
2022-08-09T08:12:11.503Z,1.90
2022-08-09T08:13:58.242Z,3.00
2022-08-09T08:16:31.550Z,2.40
2022-08-09T08:18:59.062Z,2.87
2022-08-09T08:21:26.553Z,2.43
2022-08-09T08:23:56.114Z,2.00
2022-08-09T08:26:26.441Z,3.20
2022-08-09T08:28:53.457Z,2.43
2022-08-09T08:31:24.435Z,2.13
2022-08-09T08:34:06.041Z,1.90
2022-08-09T08:36:35.450Z,1.73
2022-08-09T08:39:08.464Z,3.43
2022-08-09T08:41:50.457Z,2.40
2022-08-09T08:44:26.891Z,1.93
2022-08-09T08:47:02.795Z,3.73
2022-08-09T08:49:47.164Z,3.00
2022-08-09T08:52:35.043Z,2.07
2022-08-09T08:55:03.725Z,2.60
2022-08-09T08:57:34.704Z,4.13
2022-08-09T09:00:03.572Z,2.80
2022-08-09T09:02:40.152Z,2.53
2022-08-09T09:05:10.163Z,2.53
2022-08-09T09:07:42.311Z,3.93
2022-08-09T09:10:10.178Z,3.07
2022-08-09T09:12:37.042Z,3.20
2022-08-09T09:15:06.101Z,2.80
2022-08-09T09:17:48.961Z,2.53
2022-08-09T09:20:21.371Z,3.17
2022-08-09T09:22:51.359Z,2.87
2022-08-09T09:26:01.627Z,2.60
2022-08-09T09:29:02.520Z,2.60
2022-08-09T09:32:07.078Z,2.00
2022-08-09T09:34:14.175Z,2.43
2022-08-09T09:36:52.800Z,2.57
2022-08-09T09:39:23.328Z,4.07
2022-08-09T09:41:51.067Z,2.03
2022-08-09T09:44:31.746Z,2.80
2022-08-09T09:47:07.605Z,2.00
2022-08-09T09:50:07.236Z,2.67
2022-08-09T09:52:35.890Z,4.53
2022-08-09T09:55:28.468Z,1.80
2022-08-09T09:58:15.534Z,2.23
2022-08-09T10:00:59.760Z,2.87
2022-08-09T10:03:57.758Z,1.90
2022-08-09T10:06:28.001Z,3.57
2022-08-09T10:09:21.754Z,7.37
2022-08-09T10:12:12.334Z,3.20
2022-08-09T10:14:48.597Z,2.70
2022-08-09T10:17:50.992Z,2.87
2022-08-09T10:20:27.467Z,3.23
2022-08-09T10:23:16.911Z,3.47
2022-08-09T10:26:08.021Z,3.40
2022-08-09T10:28:33.453Z,2.80
2022-08-09T10:34:10.594Z,2.53
2022-08-09T10:36:35.551Z,3.30
2022-08-09T10:39:02.847Z,4.30
2022-08-09T10:41:33.235Z,2.30
2022-08-09T10:44:02.713Z,2.33
2022-08-09T10:46:57.655Z,2.23
2022-08-09T10:49:50.018Z,4.17
2022-08-09T10:52:36.391Z,2.50
2022-08-09T10:55:55.025Z,2.03
2022-08-09T10:58:33.922Z,2.40
2022-08-09T11:03:02.651Z,2.73
2022-08-09T11:04:07.584Z,3.03
2022-08-09T11:07:01.031Z,2.70
2022-08-09T11:09:47.393Z,2.13
2022-08-09T11:12:21.610Z,2.10
2022-08-09T11:14:58.829Z,3.30
2022-08-09T11:17:26.354Z,2.90
2022-08-09T11:20:11.425Z,2.73
2022-08-09T11:22:41.710Z,2.80
2022-08-09T11:25:12.314Z,2.37
2022-08-09T11:28:05.326Z,3.77
2022-08-09T11:30:32.402Z,2.43
2022-08-09T11:33:19.185Z,3.87
2022-08-09T11:35:59.130Z,2.87
2022-08-09T11:38:32.449Z,2.17
2022-08-09T11:41:13.422Z,2.63
2022-08-09T11:43:47.002Z,4.13
2022-08-09T11:46:18.505Z,3.60
2022-08-09T11:48:59.635Z,1.87
2022-08-09T11:53:15.315Z,2.00
2022-08-09T11:54:28.202Z,1.80
2022-08-09T11:57:46.962Z,2.17
2022-08-09T12:00:15.785Z,3.93
2022-08-09T12:02:43.781Z,2.30
2022-08-09T12:05:23.028Z,3.93
2022-08-09T12:07:50.023Z,1.87
2022-08-09T12:10:38.808Z,2.03
2022-08-09T12:14:07.078Z,2.67
2022-08-09T12:15:58.359Z,2.67
2022-08-09T12:18:25.924Z,2.03
2022-08-09T12:20:57.299Z,1.90
2022-08-09T12:23:56.141Z,2.57
2022-08-09T12:26:25.806Z,3.43
2022-08-09T12:29:14.070Z,1.93
2022-08-09T12:31:58.703Z,2.70
2022-08-09T12:34:32.727Z,1.70
2022-08-09T12:37:21.323Z,2.20
2022-08-09T12:40:20.490Z,2.40
2022-08-09T12:42:50.617Z,2.47
2022-08-09T12:45:33.271Z,1.63
2022-08-09T12:48:02.367Z,2.20
2022-08-09T12:50:28.949Z,2.40
2022-08-09T12:53:08.953Z,1.43
2022-08-09T12:56:12.272Z,2.53
2022-08-09T12:58:28.889Z,2.20
2022-08-09T13:00:55.791Z,2.90
2022-08-09T13:03:54.185Z,2.13
2022-08-09T13:06:34.294Z,2.60
2022-08-09T13:09:05.418Z,2.80
2022-08-09T13:11:33.726Z,1.57
2022-08-09T13:14:36.935Z,1.80
2022-08-09T13:16:52.241Z,1.73
2022-08-09T13:20:08.589Z,2.33
2022-08-09T13:22:35.953Z,1.63
2022-08-09T13:25:05.580Z,1.37
2022-08-09T13:27:39.415Z,2.03
2022-08-09T13:31:11.448Z,2.43
2022-08-09T13:33:07.007Z,2.07
2022-08-09T13:36:23.427Z,1.50
2022-08-09T13:38:55.759Z,2.50
2022-08-09T13:41:46.954Z,1.97
2022-08-09T13:43:58.611Z,2.20
2022-08-09T13:47:16.126Z,1.53
2022-08-09T13:49:17.967Z,1.83
2022-08-09T13:51:58.716Z,1.90
2022-08-09T13:54:30.198Z,1.97
2022-08-09T13:56:57.074Z,3.00
2022-08-09T13:59:25.629Z,3.23
2022-08-09T14:01:56.207Z,4.10
2022-08-09T14:04:30.348Z,1.93
2022-08-09T14:06:57.637Z,3.53
2022-08-09T14:09:25.744Z,2.27
2022-08-09T14:11:54.703Z,2.37
2022-08-09T14:14:25.611Z,1.90
2022-08-09T14:16:54.518Z,3.10
2022-08-09T14:19:21.576Z,2.50
2022-08-09T14:21:49.543Z,2.00
2022-08-09T14:24:22.160Z,2.00
2022-08-09T14:27:00.254Z,1.87
2022-08-09T14:30:34.828Z,2.03
2022-08-09T14:32:16.424Z,4.17
2022-08-09T14:34:46.751Z,2.10
2022-08-09T14:37:28.243Z,2.03
2022-08-09T14:39:55.339Z,5.27
2022-08-09T14:42:28.828Z,3.40
2022-08-09T14:46:39.445Z,1.80
2022-08-09T14:47:58.495Z,3.33
2022-08-09T14:50:30.376Z,2.63
2022-08-09T14:52:57.640Z,3.93
2022-08-09T14:55:24.389Z,2.10
2022-08-09T14:57:51.397Z,4.13
2022-08-09T15:00:18.064Z,2.87
2022-08-09T15:02:47.431Z,2.30
2022-08-09T15:05:16.300Z,1.97
2022-08-09T15:07:45.629Z,2.37
2022-08-09T15:10:25.077Z,2.30
2022-08-09T15:12:53.017Z,1.40
2022-08-09T15:15:20.220Z,1.63
2022-08-09T15:17:52.470Z,1.83
2022-08-09T15:21:56.832Z,1.90
2022-08-09T15:24:02.197Z,2.80
2022-08-09T15:25:53.792Z,2.33
2022-08-09T15:28:27.421Z,2.93
2022-08-09T15:31:07.355Z,3.43
2022-08-09T15:34:17.310Z,1.90
2022-08-09T15:36:28.732Z,2.13
2022-08-09T15:38:56.570Z,2.07
2022-08-09T15:41:23.220Z,2.73
2022-08-09T15:43:58.391Z,3.30
2022-08-09T15:46:33.350Z,4.03
2022-08-09T15:49:22.580Z,2.90
2022-08-09T15:52:04.554Z,2.47
2022-08-09T15:54:44.825Z,2.20
2022-08-09T15:57:35.178Z,1.50
2022-08-09T16:00:14.103Z,2.90
2022-08-09T16:02:43.143Z,2.70
2022-08-09T16:05:21.241Z,2.33
2022-08-09T16:07:50.502Z,8.10
2022-08-09T16:10:55.595Z,4.00
2022-08-09T16:13:21.047Z,1.80
2022-08-09T16:16:12.275Z,1.50
2022-08-09T16:18:44.603Z,2.00
2022-08-09T16:21:12.386Z,3.10
2022-08-09T16:23:50.758Z,5.77
2022-08-09T16:26:33.694Z,2.00
2022-08-09T16:29:12.867Z,2.53
2022-08-09T16:32:20.234Z,1.63
2022-08-09T16:34:28.828Z,1.77
2022-08-09T16:36:56.908Z,1.60
2022-08-09T16:39:25.804Z,2.83
2022-08-09T16:42:04.062Z,2.90
2022-08-09T16:44:32.213Z,2.70
2022-08-09T16:47:04.107Z,4.00
2022-08-09T16:50:31.693Z,3.00
2022-08-09T16:52:33.849Z,5.57
2022-08-09T16:55:00.858Z,2.10
2022-08-09T16:58:08.196Z,2.37
2022-08-09T17:00:15.239Z,2.63
2022-08-09T17:02:42.775Z,2.30
2022-08-09T17:05:14.283Z,2.17
2022-08-09T17:08:46.845Z,1.73
2022-08-09T17:10:33.931Z,2.10
2022-08-09T17:13:01.472Z,1.97
2022-08-09T17:15:30.965Z,2.47
2022-08-09T17:18:16.460Z,2.80
2022-08-09T17:20:54.785Z,6.53
2022-08-09T17:23:22.135Z,2.60
2022-08-09T17:26:04.615Z,1.60
2022-08-09T17:28:37.333Z,2.57
2022-08-09T17:31:03.966Z,1.70
2022-08-09T17:33:36.011Z,1.50
2022-08-09T17:36:05.421Z,2.67
2022-08-09T17:38:39.522Z,3.10
2022-08-09T17:41:08.508Z,5.07
2022-08-09T17:43:37.589Z,2.20
2022-08-09T17:46:07.347Z,2.00
2022-08-09T17:48:38.953Z,2.90
2022-08-09T17:51:10.247Z,1.90
2022-08-09T17:53:51.520Z,2.30
2022-08-09T17:56:27.094Z,2.20
2022-08-09T17:58:55.483Z,1.90
2022-08-09T18:01:23.672Z,1.93
2022-08-09T18:03:54.573Z,3.30
2022-08-09T18:06:32.204Z,2.90
2022-08-09T18:09:03.944Z,2.93
2022-08-09T18:12:05.817Z,3.37
2022-08-09T18:14:20.413Z,3.23
2022-08-09T18:16:49.086Z,3.43
2022-08-09T18:20:59.519Z,3.00
2022-08-09T18:22:04.538Z,6.33
2022-08-09T18:24:31.886Z,2.20
2022-08-09T18:27:01.073Z,1.90
2022-08-09T18:30:34.486Z,2.00
2022-08-09T18:32:19.014Z,2.60
2022-08-09T18:34:45.855Z,3.07
2022-08-09T18:37:47.670Z,2.50
2022-08-09T18:40:01.484Z,1.97
2022-08-09T18:42:29.374Z,3.47
2022-08-09T18:44:56.289Z,2.70
2022-08-09T18:47:24.301Z,2.93
2022-08-09T18:49:54.341Z,2.27
2022-08-09T18:52:28.643Z,2.57
2022-08-09T18:55:01.965Z,5.80
2022-08-09T18:57:43.255Z,1.67
2022-08-09T19:00:19.155Z,1.70
2022-08-09T19:02:48.012Z,2.23
2022-08-09T19:05:28.288Z,2.70
2022-08-09T19:08:10.211Z,2.53
2022-08-09T19:10:41.042Z,2.80
2022-08-09T19:13:23.432Z,3.00
2022-08-09T19:15:58.751Z,6.13
2022-08-09T19:18:33.904Z,3.87
2022-08-09T19:21:03.590Z,2.60
2022-08-09T19:24:37.975Z,2.90
2022-08-09T19:26:19.096Z,2.70
2022-08-09T19:28:56.081Z,3.63
2022-08-09T19:31:28.006Z,4.10
2022-08-09T19:33:57.323Z,2.50
2022-08-09T19:36:30.869Z,2.37
2022-08-09T19:39:01.223Z,2.13
2022-08-09T19:41:33.485Z,7.63
2022-08-09T19:44:03.305Z,1.80
2022-08-09T19:46:35.340Z,3.57
2022-08-09T19:50:05.137Z,2.33
2022-08-09T19:51:55.771Z,2.23
2022-08-09T19:54:26.940Z,2.33
2022-08-09T19:56:57.050Z,5.60
2022-08-09T19:59:58.588Z,4.50
2022-08-09T20:03:24.023Z,7.00
2022-08-09T20:04:59.934Z,3.47
2022-08-09T20:07:56.836Z,3.80
2022-08-09T20:10:17.806Z,6.67
2022-08-09T20:12:49.031Z,3.70
2022-08-09T20:16:35.161Z,3.80
2022-08-09T20:18:02.888Z,2.87
2022-08-09T20:20:34.086Z,6.00
2022-08-09T20:23:00.673Z,3.00
2022-08-09T20:25:29.057Z,3.33
2022-08-09T20:28:24.452Z,5.80
2022-08-09T20:31:00.576Z,7.43
2022-08-09T20:33:29.541Z,5.00
2022-08-09T20:36:08.318Z,4.97
2022-08-09T20:39:02.690Z,3.73
2022-08-09T20:41:34.722Z,5.10
2022-08-09T20:44:04.538Z,4.23
2022-08-09T20:46:43.398Z,4.20
2022-08-09T20:49:11.838Z,11.77
2022-08-09T20:51:41.124Z,12.43
2022-08-09T20:54:12.609Z,17.10
2022-08-09T20:56:43.924Z,25.53
2022-08-09T20:59:17.270Z,27.30
2022-08-09T21:01:50.798Z,49.60
2022-08-09T21:05:56.871Z,33.73
2022-08-09T21:07:11.712Z,38.30
2022-08-09T21:09:45.500Z,48.73
2022-08-09T21:14:46.130Z,44.50
2022-08-09T21:18:11.526Z,47.90
2022-08-09T21:20:17.722Z,38.33
2022-08-09T21:22:53.872Z,35.03
2022-08-09T21:25:39.623Z,27.63
2022-08-09T21:28:12.251Z,28.27
2022-08-09T21:30:42.597Z,23.20
2022-08-09T21:33:09.533Z,35.27
2022-08-09T21:35:40.862Z,42.03
2022-08-09T21:38:18.499Z,29.73
2022-08-09T21:40:57.919Z,34.83
2022-08-09T21:43:55.957Z,18.73
2022-08-09T21:46:12.352Z,37.67
2022-08-09T21:48:42.671Z,49.13
2022-08-09T21:51:24.013Z,40.07
2022-08-09T21:53:54.561Z,38.80
2022-08-09T21:56:42.042Z,46.67
2022-08-09T21:59:10.665Z,28.80
2022-08-09T22:01:59.373Z,27.20
2022-08-09T22:04:55.540Z,34.43
2022-08-09T22:07:34.993Z,29.77
2022-08-09T22:10:03.151Z,25.83
2022-08-09T22:12:34.594Z,23.30
2022-08-09T22:15:01.946Z,39.40
2022-08-09T22:17:32.133Z,34.40
2022-08-09T22:20:00.671Z,18.80
2022-08-09T22:22:28.387Z,35.47
2022-08-09T22:26:05.866Z,27.20
2022-08-09T22:27:42.979Z,21.50
2022-08-09T22:30:10.496Z,18.47
2022-08-09T22:32:38.357Z,23.50
2022-08-09T22:36:01.793Z,16.10
2022-08-09T22:38:06.708Z,18.73
2022-08-09T22:40:34.676Z,22.60
2022-08-09T22:43:01.444Z,17.43
2022-08-09T22:48:15.225Z,23.30
2022-08-09T22:48:35.559Z,29.67
2022-08-09T22:51:10.882Z,23.63
2022-08-09T22:54:01.079Z,23.30
2022-08-09T22:56:33.766Z,31.90
2022-08-09T22:59:05.972Z,21.43
2022-08-09T23:01:51.958Z,25.33
2022-08-09T23:04:18.907Z,18.83
2022-08-09T23:07:04.071Z,33.70
2022-08-09T23:09:38.100Z,27.53
2022-08-09T23:12:04.744Z,28.53
2022-08-09T23:14:42.195Z,34.83
2022-08-09T23:17:09.659Z,29.97
2022-08-09T23:20:06.065Z,20.23
2022-08-09T23:22:22.830Z,21.67
2022-08-09T23:24:49.473Z,31.37
2022-08-09T23:27:16.009Z,23.43
2022-08-09T23:29:42.682Z,25.07
2022-08-09T23:32:09.262Z,30.97
2022-08-09T23:34:36.727Z,19.87
2022-08-09T23:37:04.165Z,25.43
2022-08-09T23:39:30.876Z,32.40
2022-08-09T23:41:57.392Z,39.43
2022-08-09T23:44:23.928Z,41.70
2022-08-09T23:46:57.168Z,28.63
2022-08-09T23:49:24.754Z,30.03
2022-08-09T23:51:52.113Z,31.73
2022-08-09T23:54:18.833Z,24.93
2022-08-09T23:56:54.487Z,32.17
2022-08-09T23:59:22.873Z,32.07
